sensor_id;sensor_type;location;lat;lon;timestamp;P1;durP1;ratioP1;P2;durP2;ratioP2
18290;SDS011;9271;48.590;8.866;2024-02-21T00:02:26;8.40;;;5.17;;
18290;SDS011;9271;48.590;8.866;2024-02-21T00:04:52;7.43;;;4.80;;
18290;SDS011;9271;48.590;8.866;2024-02-21T00:07:19;8.43;;;4.63;;
18290;SDS011;9271;48.590;8.866;2024-02-21T00:09:45;9.83;;;5.00;;
18290;SDS011;9271;48.590;8.866;2024-02-21T00:12:13;10.27;;;5.10;;
18290;SDS011;9271;48.590;8.866;2024-02-21T00:14:40;8.17;;;4.70;;
18290;SDS011;9271;48.590;8.866;2024-02-21T00:17:07;6.40;;;4.47;;
18290;SDS011;9271;48.590;8.866;2024-02-21T00:19:34;7.43;;;4.53;;
18290;SDS011;9271;48.590;8.866;2024-02-21T00:22:01;10.83;;;6.47;;
18290;SDS011;9271;48.590;8.866;2024-02-21T00:24:27;8.33;;;5.57;;
18290;SDS011;9271;48.590;8.866;2024-02-21T00:26:54;6.83;;;4.90;;
18290;SDS011;9271;48.590;8.866;2024-02-21T00:29:22;8.87;;;4.40;;
18290;SDS011;9271;48.590;8.866;2024-02-21T00:31:49;10.73;;;5.87;;
18290;SDS011;9271;48.590;8.866;2024-02-21T00:34:15;13.93;;;4.90;;
18290;SDS011;9271;48.590;8.866;2024-02-21T00:36:42;7.07;;;5.37;;
18290;SDS011;9271;48.590;8.866;2024-02-21T00:39:09;6.70;;;4.97;;
18290;SDS011;9271;48.590;8.866;2024-02-21T00:41:35;9.60;;;5.47;;
18290;SDS011;9271;48.590;8.866;2024-02-21T00:44:02;9.97;;;4.97;;
18290;SDS011;9271;48.590;8.866;2024-02-21T00:46:32;9.37;;;5.40;;
18290;SDS011;9271;48.590;8.866;2024-02-21T00:48:58;11.23;;;5.27;;
18290;SDS011;9271;48.590;8.866;2024-02-21T00:51:25;9.23;;;5.10;;
18290;SDS011;9271;48.590;8.866;2024-02-21T00:53:52;12.70;;;6.13;;
18290;SDS011;9271;48.590;8.866;2024-02-21T00:56:18;8.37;;;5.27;;
18290;SDS011;9271;48.590;8.866;2024-02-21T00:58:45;8.20;;;4.90;;
18290;SDS011;9271;48.590;8.866;2024-02-21T01:01:11;8.00;;;4.80;;
18290;SDS011;9271;48.590;8.866;2024-02-21T01:03:40;9.27;;;4.50;;
18290;SDS011;9271;48.590;8.866;2024-02-21T01:06:07;10.60;;;5.03;;
18290;SDS011;9271;48.590;8.866;2024-02-21T01:08:33;8.63;;;4.30;;
18290;SDS011;9271;48.590;8.866;2024-02-21T01:11:00;9.47;;;4.23;;
18290;SDS011;9271;48.590;8.866;2024-02-21T01:13:26;8.17;;;4.20;;
18290;SDS011;9271;48.590;8.866;2024-02-21T01:15:53;8.03;;;4.40;;
18290;SDS011;9271;48.590;8.866;2024-02-21T01:18:20;7.00;;;4.10;;
18290;SDS011;9271;48.590;8.866;2024-02-21T01:20:48;9.33;;;4.07;;
18290;SDS011;9271;48.590;8.866;2024-02-21T01:23:14;9.03;;;4.17;;
18290;SDS011;9271;48.590;8.866;2024-02-21T01:25:41;10.03;;;4.30;;
18290;SDS011;9271;48.590;8.866;2024-02-21T01:28:08;7.73;;;4.10;;
18290;SDS011;9271;48.590;8.866;2024-02-21T01:30:34;8.67;;;3.60;;
18290;SDS011;9271;48.590;8.866;2024-02-21T01:33:01;5.20;;;3.63;;
18290;SDS011;9271;48.590;8.866;2024-02-21T01:35:28;6.57;;;3.63;;
18290;SDS011;9271;48.590;8.866;2024-02-21T01:37:56;8.27;;;3.63;;
18290;SDS011;9271;48.590;8.866;2024-02-21T01:40:23;5.53;;;3.63;;
18290;SDS011;9271;48.590;8.866;2024-02-21T01:42:49;5.97;;;3.67;;
18290;SDS011;9271;48.590;8.866;2024-02-21T01:45:18;5.67;;;3.60;;
18290;SDS011;9271;48.590;8.866;2024-02-21T01:47:45;6.50;;;3.63;;
18290;SDS011;9271;48.590;8.866;2024-02-21T01:50:12;10.30;;;3.60;;
18290;SDS011;9271;48.590;8.866;2024-02-21T01:52:40;6.03;;;3.97;;
18290;SDS011;9271;48.590;8.866;2024-02-21T01:55:10;6.57;;;3.83;;
18290;SDS011;9271;48.590;8.866;2024-02-21T01:57:38;7.50;;;4.13;;
18290;SDS011;9271;48.590;8.866;2024-02-21T02:00:06;6.23;;;3.40;;
18290;SDS011;9271;48.590;8.866;2024-02-21T02:02:35;6.53;;;3.50;;
18290;SDS011;9271;48.590;8.866;2024-02-21T02:05:03;5.60;;;3.20;;
18290;SDS011;9271;48.590;8.866;2024-02-21T02:07:31;6.40;;;3.43;;
18290;SDS011;9271;48.590;8.866;2024-02-21T02:09:58;5.93;;;3.17;;
18290;SDS011;9271;48.590;8.866;2024-02-21T02:12:26;6.67;;;3.53;;
18290;SDS011;9271;48.590;8.866;2024-02-21T02:14:57;5.47;;;3.17;;
18290;SDS011;9271;48.590;8.866;2024-02-21T02:17:24;6.70;;;3.73;;
18290;SDS011;9271;48.590;8.866;2024-02-21T02:19:51;8.33;;;3.50;;
18290;SDS011;9271;48.590;8.866;2024-02-21T02:22:19;8.03;;;3.67;;
18290;SDS011;9271;48.590;8.866;2024-02-21T02:24:52;7.13;;;3.40;;
18290;SDS011;9271;48.590;8.866;2024-02-21T02:27:19;7.07;;;3.37;;
18290;SDS011;9271;48.590;8.866;2024-02-21T02:29:47;7.07;;;3.03;;
18290;SDS011;9271;48.590;8.866;2024-02-21T02:32:14;6.33;;;2.90;;
18290;SDS011;9271;48.590;8.866;2024-02-21T02:34:41;6.70;;;3.20;;
18290;SDS011;9271;48.590;8.866;2024-02-21T02:37:08;8.17;;;3.20;;
18290;SDS011;9271;48.590;8.866;2024-02-21T02:39:34;9.33;;;3.00;;
18290;SDS011;9271;48.590;8.866;2024-02-21T02:42:03;5.37;;;3.40;;
18290;SDS011;9271;48.590;8.866;2024-02-21T02:44:30;4.83;;;3.17;;
18290;SDS011;9271;48.590;8.866;2024-02-21T02:46:57;4.90;;;2.83;;
18290;SDS011;9271;48.590;8.866;2024-02-21T02:49:23;6.43;;;3.20;;
18290;SDS011;9271;48.590;8.866;2024-02-21T02:51:50;6.40;;;3.23;;
18290;SDS011;9271;48.590;8.866;2024-02-21T02:54:17;4.73;;;2.87;;
18290;SDS011;9271;48.590;8.866;2024-02-21T02:56:43;5.43;;;3.17;;
18290;SDS011;9271;48.590;8.866;2024-02-21T02:59:11;5.50;;;3.07;;
18290;SDS011;9271;48.590;8.866;2024-02-21T03:01:38;4.97;;;3.07;;
18290;SDS011;9271;48.590;8.866;2024-02-21T03:04:04;5.90;;;3.00;;
18290;SDS011;9271;48.590;8.866;2024-02-21T03:06:31;6.30;;;2.97;;
18290;SDS011;9271;48.590;8.866;2024-02-21T03:08:58;3.90;;;2.83;;
18290;SDS011;9271;48.590;8.866;2024-02-21T03:11:25;3.63;;;3.00;;
18290;SDS011;9271;48.590;8.866;2024-02-21T03:13:54;7.40;;;3.10;;
18290;SDS011;9271;48.590;8.866;2024-02-21T03:16:22;6.70;;;3.00;;
18290;SDS011;9271;48.590;8.866;2024-02-21T03:18:49;6.47;;;2.50;;
18290;SDS011;9271;48.590;8.866;2024-02-21T03:21:15;5.30;;;2.70;;
18290;SDS011;9271;48.590;8.866;2024-02-21T03:23:42;7.70;;;2.70;;
18290;SDS011;9271;48.590;8.866;2024-02-21T03:26:08;6.10;;;2.50;;
18290;SDS011;9271;48.590;8.866;2024-02-21T03:28:35;3.93;;;2.67;;
18290;SDS011;9271;48.590;8.866;2024-02-21T03:31:02;4.47;;;2.60;;
18290;SDS011;9271;48.590;8.866;2024-02-21T03:33:30;2.93;;;2.33;;
18290;SDS011;9271;48.590;8.866;2024-02-21T03:35:57;5.00;;;2.60;;
18290;SDS011;9271;48.590;8.866;2024-02-21T03:38:24;8.07;;;2.83;;
18290;SDS011;9271;48.590;8.866;2024-02-21T03:40:50;5.70;;;2.57;;
18290;SDS011;9271;48.590;8.866;2024-02-21T03:43:17;4.63;;;2.27;;
18290;SDS011;9271;48.590;8.866;2024-02-21T03:45:44;5.43;;;2.53;;
18290;SDS011;9271;48.590;8.866;2024-02-21T03:48:10;6.83;;;2.53;;
18290;SDS011;9271;48.590;8.866;2024-02-21T03:50:38;4.33;;;2.70;;
18290;SDS011;9271;48.590;8.866;2024-02-21T03:53:05;4.20;;;2.30;;
18290;SDS011;9271;48.590;8.866;2024-02-21T03:55:32;3.37;;;2.30;;
18290;SDS011;9271;48.590;8.866;2024-02-21T03:57:59;5.53;;;2.77;;
18290;SDS011;9271;48.590;8.866;2024-02-21T04:00:25;3.93;;;2.40;;
18290;SDS011;9271;48.590;8.866;2024-02-21T04:02:52;7.73;;;2.90;;
18290;SDS011;9271;48.590;8.866;2024-02-21T04:05:20;4.63;;;2.73;;
18290;SDS011;9271;48.590;8.866;2024-02-21T04:07:48;5.93;;;2.80;;
18290;SDS011;9271;48.590;8.866;2024-02-21T04:10:16;4.53;;;2.90;;
18290;SDS011;9271;48.590;8.866;2024-02-21T04:12:43;4.80;;;3.00;;
18290;SDS011;9271;48.590;8.866;2024-02-21T04:15:09;6.67;;;2.90;;
18290;SDS011;9271;48.590;8.866;2024-02-21T04:17:36;5.50;;;3.33;;
18290;SDS011;9271;48.590;8.866;2024-02-21T04:20:03;6.60;;;2.80;;
18290;SDS011;9271;48.590;8.866;2024-02-21T04:22:32;5.43;;;2.80;;
18290;SDS011;9271;48.590;8.866;2024-02-21T04:25:01;5.27;;;2.37;;
18290;SDS011;9271;48.590;8.866;2024-02-21T04:27:27;4.60;;;3.03;;
18290;SDS011;9271;48.590;8.866;2024-02-21T04:29:54;7.30;;;2.80;;
18290;SDS011;9271;48.590;8.866;2024-02-21T04:32:21;5.80;;;2.67;;
18290;SDS011;9271;48.590;8.866;2024-02-21T04:34:47;5.23;;;2.87;;
18290;SDS011;9271;48.590;8.866;2024-02-21T04:37:14;4.43;;;2.50;;
18290;SDS011;9271;48.590;8.866;2024-02-21T04:39:41;6.57;;;4.03;;
18290;SDS011;9271;48.590;8.866;2024-02-21T04:42:09;9.10;;;5.53;;
18290;SDS011;9271;48.590;8.866;2024-02-21T04:44:36;8.27;;;5.00;;
18290;SDS011;9271;48.590;8.866;2024-02-21T04:47:03;6.77;;;2.77;;
18290;SDS011;9271;48.590;8.866;2024-02-21T04:49:30;6.50;;;2.90;;
18290;SDS011;9271;48.590;8.866;2024-02-21T04:51:56;6.30;;;3.20;;
18290;SDS011;9271;48.590;8.866;2024-02-21T04:54:23;5.67;;;3.17;;
18290;SDS011;9271;48.590;8.866;2024-02-21T04:56:50;5.83;;;3.03;;
18290;SDS011;9271;48.590;8.866;2024-02-21T04:59:18;5.07;;;3.10;;
18290;SDS011;9271;48.590;8.866;2024-02-21T05:01:44;4.90;;;2.67;;
18290;SDS011;9271;48.590;8.866;2024-02-21T05:04:11;5.77;;;2.40;;
18290;SDS011;9271;48.590;8.866;2024-02-21T05:06:38;6.83;;;2.97;;
18290;SDS011;9271;48.590;8.866;2024-02-21T05:09:05;2.73;;;2.30;;
18290;SDS011;9271;48.590;8.866;2024-02-21T05:11:32;6.00;;;3.27;;
18290;SDS011;9271;48.590;8.866;2024-02-21T05:13:59;13.93;;;2.80;;
18290;SDS011;9271;48.590;8.866;2024-02-21T05:16:26;7.63;;;2.67;;
18290;SDS011;9271;48.590;8.866;2024-02-21T05:18:53;7.97;;;3.03;;
18290;SDS011;9271;48.590;8.866;2024-02-21T05:21:21;6.50;;;2.60;;
18290;SDS011;9271;48.590;8.866;2024-02-21T05:23:48;6.53;;;2.77;;
18290;SDS011;9271;48.590;8.866;2024-02-21T05:26:19;6.63;;;2.60;;
18290;SDS011;9271;48.590;8.866;2024-02-21T05:28:47;4.47;;;2.87;;
18290;SDS011;9271;48.590;8.866;2024-02-21T05:31:14;5.17;;;2.53;;
18290;SDS011;9271;48.590;8.866;2024-02-21T05:33:42;3.93;;;2.73;;
18290;SDS011;9271;48.590;8.866;2024-02-21T05:36:09;6.17;;;2.53;;
18290;SDS011;9271;48.590;8.866;2024-02-21T05:38:36;7.73;;;2.70;;
18290;SDS011;9271;48.590;8.866;2024-02-21T05:41:03;5.90;;;2.77;;
18290;SDS011;9271;48.590;8.866;2024-02-21T05:43:30;5.60;;;2.47;;
18290;SDS011;9271;48.590;8.866;2024-02-21T05:45:56;6.27;;;2.50;;
18290;SDS011;9271;48.590;8.866;2024-02-21T05:48:23;3.03;;;2.27;;
18290;SDS011;9271;48.590;8.866;2024-02-21T05:50:51;6.60;;;2.80;;
18290;SDS011;9271;48.590;8.866;2024-02-21T05:53:18;3.70;;;2.30;;
18290;SDS011;9271;48.590;8.866;2024-02-21T05:55:45;4.20;;;2.83;;
18290;SDS011;9271;48.590;8.866;2024-02-21T05:58:11;6.60;;;2.60;;
18290;SDS011;9271;48.590;8.866;2024-02-21T06:00:38;5.47;;;2.80;;
18290;SDS011;9271;48.590;8.866;2024-02-21T06:03:04;6.77;;;3.03;;
18290;SDS011;9271;48.590;8.866;2024-02-21T06:05:35;7.20;;;2.60;;
18290;SDS011;9271;48.590;8.866;2024-02-21T06:08:04;6.33;;;2.53;;
18290;SDS011;9271;48.590;8.866;2024-02-21T06:10:31;6.03;;;2.83;;
18290;SDS011;9271;48.590;8.866;2024-02-21T06:12:58;3.90;;;2.20;;
18290;SDS011;9271;48.590;8.866;2024-02-21T06:15:25;5.13;;;2.40;;
18290;SDS011;9271;48.590;8.866;2024-02-21T06:17:51;5.83;;;2.80;;
18290;SDS011;9271;48.590;8.866;2024-02-21T06:20:18;4.83;;;3.03;;
18290;SDS011;9271;48.590;8.866;2024-02-21T06:22:45;4.33;;;2.60;;
18290;SDS011;9271;48.590;8.866;2024-02-21T06:25:12;5.93;;;3.03;;
18290;SDS011;9271;48.590;8.866;2024-02-21T06:27:39;5.10;;;2.83;;
18290;SDS011;9271;48.590;8.866;2024-02-21T06:30:06;4.70;;;2.90;;
18290;SDS011;9271;48.590;8.866;2024-02-21T06:32:34;4.90;;;2.60;;
18290;SDS011;9271;48.590;8.866;2024-02-21T06:35:00;5.57;;;3.03;;
18290;SDS011;9271;48.590;8.866;2024-02-21T06:37:27;5.17;;;3.00;;
18290;SDS011;9271;48.590;8.866;2024-02-21T06:39:55;6.33;;;3.10;;
18290;SDS011;9271;48.590;8.866;2024-02-21T06:42:24;5.43;;;3.17;;
18290;SDS011;9271;48.590;8.866;2024-02-21T06:44:51;5.00;;;2.60;;
18290;SDS011;9271;48.590;8.866;2024-02-21T06:47:17;5.87;;;2.57;;
18290;SDS011;9271;48.590;8.866;2024-02-21T06:49:47;5.37;;;2.77;;
18290;SDS011;9271;48.590;8.866;2024-02-21T06:52:14;4.77;;;2.60;;
18290;SDS011;9271;48.590;8.866;2024-02-21T06:54:42;5.00;;;2.57;;
18290;SDS011;9271;48.590;8.866;2024-02-21T06:57:09;4.47;;;2.80;;
18290;SDS011;9271;48.590;8.866;2024-02-21T06:59:37;3.73;;;2.67;;
18290;SDS011;9271;48.590;8.866;2024-02-21T07:02:04;6.87;;;2.37;;
18290;SDS011;9271;48.590;8.866;2024-02-21T07:04:30;2.47;;;2.17;;
18290;SDS011;9271;48.590;8.866;2024-02-21T07:06:57;4.80;;;2.50;;
18290;SDS011;9271;48.590;8.866;2024-02-21T07:09:24;6.60;;;2.70;;
18290;SDS011;9271;48.590;8.866;2024-02-21T07:11:50;4.90;;;2.67;;
18290;SDS011;9271;48.590;8.866;2024-02-21T07:14:17;2.70;;;2.10;;
18290;SDS011;9271;48.590;8.866;2024-02-21T07:16:46;2.93;;;2.30;;
18290;SDS011;9271;48.590;8.866;2024-02-21T07:19:12;3.67;;;2.03;;
18290;SDS011;9271;48.590;8.866;2024-02-21T07:21:39;5.30;;;2.57;;
18290;SDS011;9271;48.590;8.866;2024-02-21T07:24:07;5.97;;;2.53;;
18290;SDS011;9271;48.590;8.866;2024-02-21T07:26:34;4.97;;;2.80;;
18290;SDS011;9271;48.590;8.866;2024-02-21T07:29:00;7.47;;;2.17;;
18290;SDS011;9271;48.590;8.866;2024-02-21T07:31:27;4.87;;;2.57;;
18290;SDS011;9271;48.590;8.866;2024-02-21T07:33:55;5.10;;;2.33;;
18290;SDS011;9271;48.590;8.866;2024-02-21T07:36:27;5.50;;;2.97;;
18290;SDS011;9271;48.590;8.866;2024-02-21T07:38:55;5.23;;;3.30;;
18290;SDS011;9271;48.590;8.866;2024-02-21T07:41:22;5.00;;;2.60;;
18290;SDS011;9271;48.590;8.866;2024-02-21T07:43:48;5.40;;;2.73;;
18290;SDS011;9271;48.590;8.866;2024-02-21T07:46:15;6.40;;;2.33;;
18290;SDS011;9271;48.590;8.866;2024-02-21T07:48:41;2.33;;;1.93;;
18290;SDS011;9271;48.590;8.866;2024-02-21T07:51:09;3.33;;;2.53;;
18290;SDS011;9271;48.590;8.866;2024-02-21T07:53:36;7.17;;;2.40;;
18290;SDS011;9271;48.590;8.866;2024-02-21T07:56:09;6.23;;;2.63;;
18290;SDS011;9271;48.590;8.866;2024-02-21T07:58:36;4.73;;;2.53;;
18290;SDS011;9271;48.590;8.866;2024-02-21T08:01:02;7.03;;;2.43;;
18290;SDS011;9271;48.590;8.866;2024-02-21T08:03:29;6.17;;;2.63;;
18290;SDS011;9271;48.590;8.866;2024-02-21T08:05:56;7.55;;;3.10;;
18290;SDS011;9271;48.590;8.866;2024-02-21T08:08:24;6.53;;;3.00;;
18290;SDS011;9271;48.590;8.866;2024-02-21T08:10:51;5.87;;;2.70;;
18290;SDS011;9271;48.590;8.866;2024-02-21T08:13:18;3.90;;;2.20;;
18290;SDS011;9271;48.590;8.866;2024-02-21T08:15:44;3.43;;;2.10;;
18290;SDS011;9271;48.590;8.866;2024-02-21T08:18:11;6.20;;;2.40;;
18290;SDS011;9271;48.590;8.866;2024-02-21T08:20:38;6.00;;;2.50;;
18290;SDS011;9271;48.590;8.866;2024-02-21T08:23:04;5.13;;;2.40;;
18290;SDS011;9271;48.590;8.866;2024-02-21T08:25:32;5.87;;;2.40;;
18290;SDS011;9271;48.590;8.866;2024-02-21T08:27:59;5.43;;;2.83;;
18290;SDS011;9271;48.590;8.866;2024-02-21T08:30:26;4.67;;;2.80;;
18290;SDS011;9271;48.590;8.866;2024-02-21T08:32:52;4.17;;;2.57;;
18290;SDS011;9271;48.590;8.866;2024-02-21T08:35:19;3.67;;;2.37;;
18290;SDS011;9271;48.590;8.866;2024-02-21T08:37:47;5.93;;;2.87;;
18290;SDS011;9271;48.590;8.866;2024-02-21T08:40:14;2.83;;;2.27;;
18290;SDS011;9271;48.590;8.866;2024-02-21T08:42:44;4.17;;;2.70;;
18290;SDS011;9271;48.590;8.866;2024-02-21T08:45:10;5.10;;;2.80;;
18290;SDS011;9271;48.590;8.866;2024-02-21T08:47:38;6.20;;;2.57;;
18290;SDS011;9271;48.590;8.866;2024-02-21T08:50:09;7.37;;;2.80;;
18290;SDS011;9271;48.590;8.866;2024-02-21T08:52:36;5.60;;;2.80;;
18290;SDS011;9271;48.590;8.866;2024-02-21T08:55:03;5.37;;;2.50;;
18290;SDS011;9271;48.590;8.866;2024-02-21T08:57:30;5.57;;;3.00;;
18290;SDS011;9271;48.590;8.866;2024-02-21T09:00:02;3.53;;;2.23;;
18290;SDS011;9271;48.590;8.866;2024-02-21T09:02:34;6.50;;;2.60;;
18290;SDS011;9271;48.590;8.866;2024-02-21T09:05:01;7.80;;;2.90;;
18290;SDS011;9271;48.590;8.866;2024-02-21T09:07:30;5.20;;;2.70;;
18290;SDS011;9271;48.590;8.866;2024-02-21T09:09:56;3.73;;;2.83;;
18290;SDS011;9271;48.590;8.866;2024-02-21T09:12:23;4.97;;;2.30;;
18290;SDS011;9271;48.590;8.866;2024-02-21T09:14:50;5.40;;;2.60;;
18290;SDS011;9271;48.590;8.866;2024-02-21T09:17:18;6.10;;;2.63;;
18290;SDS011;9271;48.590;8.866;2024-02-21T09:19:45;5.47;;;2.13;;
18290;SDS011;9271;48.590;8.866;2024-02-21T09:22:12;6.07;;;2.80;;
18290;SDS011;9271;48.590;8.866;2024-02-21T09:24:39;5.13;;;2.37;;
18290;SDS011;9271;48.590;8.866;2024-02-21T09:27:05;6.50;;;2.37;;
18290;SDS011;9271;48.590;8.866;2024-02-21T09:29:32;8.90;;;3.10;;
18290;SDS011;9271;48.590;8.866;2024-02-21T09:31:59;5.33;;;3.20;;
18290;SDS011;9271;48.590;8.866;2024-02-21T09:34:27;8.40;;;2.90;;
18290;SDS011;9271;48.590;8.866;2024-02-21T09:36:53;7.03;;;3.13;;
18290;SDS011;9271;48.590;8.866;2024-02-21T09:39:20;5.80;;;2.93;;
18290;SDS011;9271;48.590;8.866;2024-02-21T09:41:48;5.93;;;2.93;;
18290;SDS011;9271;48.590;8.866;2024-02-21T09:44:20;4.03;;;2.60;;
18290;SDS011;9271;48.590;8.866;2024-02-21T09:46:52;4.57;;;2.87;;
18290;SDS011;9271;48.590;8.866;2024-02-21T09:49:31;6.30;;;3.20;;
18290;SDS011;9271;48.590;8.866;2024-02-21T09:51:59;4.37;;;2.80;;
18290;SDS011;9271;48.590;8.866;2024-02-21T09:54:28;6.30;;;2.37;;
18290;SDS011;9271;48.590;8.866;2024-02-21T09:56:56;5.00;;;2.10;;
18290;SDS011;9271;48.590;8.866;2024-02-21T09:59:23;5.20;;;2.73;;
18290;SDS011;9271;48.590;8.866;2024-02-21T10:01:50;5.93;;;2.17;;
18290;SDS011;9271;48.590;8.866;2024-02-21T10:04:17;2.83;;;1.90;;
18290;SDS011;9271;48.590;8.866;2024-02-21T10:06:45;6.93;;;2.10;;
18290;SDS011;9271;48.590;8.866;2024-02-21T10:09:20;2.93;;;1.83;;
18290;SDS011;9271;48.590;8.866;2024-02-21T10:11:47;3.97;;;2.17;;
18290;SDS011;9271;48.590;8.866;2024-02-21T10:14:14;3.90;;;1.90;;
18290;SDS011;9271;48.590;8.866;2024-02-21T10:16:42;3.73;;;2.27;;
18290;SDS011;9271;48.590;8.866;2024-02-21T10:19:15;4.80;;;2.20;;
18290;SDS011;9271;48.590;8.866;2024-02-21T10:21:43;2.53;;;1.67;;
18290;SDS011;9271;48.590;8.866;2024-02-21T10:24:11;5.57;;;2.03;;
18290;SDS011;9271;48.590;8.866;2024-02-21T10:26:38;3.37;;;2.10;;
18290;SDS011;9271;48.590;8.866;2024-02-21T10:29:05;2.80;;;1.83;;
18290;SDS011;9271;48.590;8.866;2024-02-21T10:31:31;4.70;;;2.10;;
18290;SDS011;9271;48.590;8.866;2024-02-21T10:33:58;4.23;;;2.07;;
18290;SDS011;9271;48.590;8.866;2024-02-21T10:36:28;5.47;;;2.43;;
18290;SDS011;9271;48.590;8.866;2024-02-21T10:38:55;5.13;;;2.47;;
18290;SDS011;9271;48.590;8.866;2024-02-21T10:41:23;4.67;;;2.10;;
18290;SDS011;9271;48.590;8.866;2024-02-21T10:43:52;3.27;;;2.10;;
18290;SDS011;9271;48.590;8.866;2024-02-21T10:46:20;3.83;;;1.90;;
18290;SDS011;9271;48.590;8.866;2024-02-21T10:48:48;2.47;;;1.77;;
18290;SDS011;9271;48.590;8.866;2024-02-21T10:51:32;3.43;;;1.90;;
18290;SDS011;9271;48.590;8.866;2024-02-21T10:54:02;4.40;;;2.03;;
18290;SDS011;9271;48.590;8.866;2024-02-21T10:56:40;4.27;;;1.70;;
18290;SDS011;9271;48.590;8.866;2024-02-21T10:59:07;2.83;;;1.80;;
18290;SDS011;9271;48.590;8.866;2024-02-21T11:01:34;3.90;;;2.00;;
18290;SDS011;9271;48.590;8.866;2024-02-21T11:04:02;6.33;;;1.87;;
18290;SDS011;9271;48.590;8.866;2024-02-21T11:06:30;4.03;;;2.03;;
18290;SDS011;9271;48.590;8.866;2024-02-21T11:08:59;4.23;;;2.43;;
18290;SDS011;9271;48.590;8.866;2024-02-21T11:11:30;3.30;;;1.70;;
18290;SDS011;9271;48.590;8.866;2024-02-21T11:14:07;3.80;;;1.80;;
18290;SDS011;9271;48.590;8.866;2024-02-21T11:16:35;5.03;;;2.00;;
18290;SDS011;9271;48.590;8.866;2024-02-21T11:19:04;4.27;;;1.83;;
18290;SDS011;9271;48.590;8.866;2024-02-21T11:21:34;4.73;;;1.77;;
18290;SDS011;9271;48.590;8.866;2024-02-21T11:24:01;3.93;;;1.80;;
18290;SDS011;9271;48.590;8.866;2024-02-21T11:26:29;4.67;;;1.80;;
18290;SDS011;9271;48.590;8.866;2024-02-21T11:28:57;3.40;;;1.70;;
18290;SDS011;9271;48.590;8.866;2024-02-21T11:31:26;3.20;;;1.80;;
18290;SDS011;9271;48.590;8.866;2024-02-21T11:33:53;3.47;;;1.90;;
18290;SDS011;9271;48.590;8.866;2024-02-21T11:36:26;5.10;;;2.37;;
18290;SDS011;9271;48.590;8.866;2024-02-21T11:38:53;3.33;;;1.63;;
18290;SDS011;9271;48.590;8.866;2024-02-21T11:41:20;4.27;;;1.80;;
18290;SDS011;9271;48.590;8.866;2024-02-21T11:43:48;4.00;;;2.10;;
18290;SDS011;9271;48.590;8.866;2024-02-21T11:46:15;5.00;;;2.20;;
18290;SDS011;9271;48.590;8.866;2024-02-21T11:48:43;4.73;;;1.80;;
18290;SDS011;9271;48.590;8.866;2024-02-21T11:51:19;5.37;;;2.00;;
18290;SDS011;9271;48.590;8.866;2024-02-21T11:53:47;3.80;;;1.63;;
18290;SDS011;9271;48.590;8.866;2024-02-21T11:56:14;5.97;;;2.40;;
18290;SDS011;9271;48.590;8.866;2024-02-21T11:58:40;4.17;;;1.70;;
18290;SDS011;9271;48.590;8.866;2024-02-21T12:01:07;2.00;;;1.83;;
18290;SDS011;9271;48.590;8.866;2024-02-21T12:03:35;7.27;;;2.43;;
18290;SDS011;9271;48.590;8.866;2024-02-21T12:06:04;6.07;;;3.70;;
18290;SDS011;9271;48.590;8.866;2024-02-21T12:08:40;4.33;;;2.47;;
18290;SDS011;9271;48.590;8.866;2024-02-21T12:11:15;4.73;;;1.87;;
18290;SDS011;9271;48.590;8.866;2024-02-21T12:13:42;2.90;;;1.70;;
18290;SDS011;9271;48.590;8.866;2024-02-21T12:16:09;3.80;;;1.90;;
18290;SDS011;9271;48.590;8.866;2024-02-21T12:18:36;3.00;;;1.90;;
18290;SDS011;9271;48.590;8.866;2024-02-21T12:21:06;3.63;;;1.67;;
18290;SDS011;9271;48.590;8.866;2024-02-21T12:23:33;3.17;;;1.60;;
18290;SDS011;9271;48.590;8.866;2024-02-21T12:26:00;3.77;;;1.57;;
18290;SDS011;9271;48.590;8.866;2024-02-21T12:28:27;2.27;;;1.77;;
18290;SDS011;9271;48.590;8.866;2024-02-21T12:30:53;2.90;;;1.60;;
18290;SDS011;9271;48.590;8.866;2024-02-21T12:33:20;4.57;;;1.63;;
18290;SDS011;9271;48.590;8.866;2024-02-21T12:35:48;2.30;;;1.37;;
18290;SDS011;9271;48.590;8.866;2024-02-21T12:38:16;3.97;;;1.50;;
18290;SDS011;9271;48.590;8.866;2024-02-21T12:40:45;4.10;;;1.70;;
18290;SDS011;9271;48.590;8.866;2024-02-21T12:43:12;4.83;;;1.80;;
18290;SDS011;9271;48.590;8.866;2024-02-21T12:45:38;3.63;;;1.30;;
18290;SDS011;9271;48.590;8.866;2024-02-21T12:48:06;1.83;;;1.30;;
18290;SDS011;9271;48.590;8.866;2024-02-21T12:50:32;2.50;;;1.27;;
18290;SDS011;9271;48.590;8.866;2024-02-21T12:52:59;3.23;;;1.13;;
18290;SDS011;9271;48.590;8.866;2024-02-21T12:55:28;2.43;;;1.50;;
18290;SDS011;9271;48.590;8.866;2024-02-21T12:57:55;2.80;;;1.60;;
18290;SDS011;9271;48.590;8.866;2024-02-21T13:00:22;1.47;;;1.30;;
18290;SDS011;9271;48.590;8.866;2024-02-21T13:02:51;2.30;;;1.30;;
18290;SDS011;9271;48.590;8.866;2024-02-21T13:05:18;1.73;;;1.13;;
18290;SDS011;9271;48.590;8.866;2024-02-21T13:07:44;1.97;;;1.10;;
18290;SDS011;9271;48.590;8.866;2024-02-21T13:10:11;1.50;;;1.30;;
18290;SDS011;9271;48.590;8.866;2024-02-21T13:12:40;4.07;;;1.20;;
18290;SDS011;9271;48.590;8.866;2024-02-21T13:15:07;1.27;;;1.17;;
18290;SDS011;9271;48.590;8.866;2024-02-21T13:17:36;1.30;;;1.10;;
18290;SDS011;9271;48.590;8.866;2024-02-21T13:20:04;2.10;;;1.23;;
18290;SDS011;9271;48.590;8.866;2024-02-21T13:22:33;1.20;;;1.17;;
18290;SDS011;9271;48.590;8.866;2024-02-21T13:24:59;1.30;;;1.20;;
18290;SDS011;9271;48.590;8.866;2024-02-21T13:27:26;1.60;;;1.40;;
18290;SDS011;9271;48.590;8.866;2024-02-21T13:29:54;2.13;;;1.27;;
18290;SDS011;9271;48.590;8.866;2024-02-21T13:32:21;2.30;;;1.33;;
18290;SDS011;9271;48.590;8.866;2024-02-21T13:34:47;1.20;;;1.10;;
18290;SDS011;9271;48.590;8.866;2024-02-21T13:37:15;2.20;;;1.50;;
18290;SDS011;9271;48.590;8.866;2024-02-21T13:39:41;2.87;;;1.40;;
18290;SDS011;9271;48.590;8.866;2024-02-21T13:42:08;1.37;;;1.10;;
18290;SDS011;9271;48.590;8.866;2024-02-21T13:44:35;1.43;;;1.30;;
18290;SDS011;9271;48.590;8.866;2024-02-21T13:47:03;2.43;;;1.60;;
18290;SDS011;9271;48.590;8.866;2024-02-21T13:49:33;3.43;;;1.40;;
18290;SDS011;9271;48.590;8.866;2024-02-21T13:52:00;1.80;;;1.30;;
18290;SDS011;9271;48.590;8.866;2024-02-21T13:54:27;2.23;;;1.40;;
18290;SDS011;9271;48.590;8.866;2024-02-21T13:56:53;2.17;;;1.40;;
18290;SDS011;9271;48.590;8.866;2024-02-21T13:59:20;3.23;;;1.60;;
18290;SDS011;9271;48.590;8.866;2024-02-21T14:01:47;2.03;;;1.47;;
18290;SDS011;9271;48.590;8.866;2024-02-21T14:04:15;2.93;;;1.63;;
18290;SDS011;9271;48.590;8.866;2024-02-21T14:06:41;3.50;;;1.63;;
18290;SDS011;9271;48.590;8.866;2024-02-21T14:09:08;4.50;;;1.40;;
18290;SDS011;9271;48.590;8.866;2024-02-21T14:11:35;4.73;;;1.87;;
18290;SDS011;9271;48.590;8.866;2024-02-21T14:14:02;3.47;;;1.83;;
18290;SDS011;9271;48.590;8.866;2024-02-21T14:16:29;5.83;;;2.10;;
18290;SDS011;9271;48.590;8.866;2024-02-21T14:18:56;2.07;;;1.83;;
18290;SDS011;9271;48.590;8.866;2024-02-21T14:21:24;2.87;;;1.80;;
18290;SDS011;9271;48.590;8.866;2024-02-21T14:23:51;2.40;;;1.87;;
18290;SDS011;9271;48.590;8.866;2024-02-21T14:26:18;3.57;;;1.60;;
18290;SDS011;9271;48.590;8.866;2024-02-21T14:28:46;2.10;;;1.60;;
18290;SDS011;9271;48.590;8.866;2024-02-21T14:31:13;3.13;;;1.60;;
18290;SDS011;9271;48.590;8.866;2024-02-21T14:33:40;3.80;;;1.57;;
18290;SDS011;9271;48.590;8.866;2024-02-21T14:36:07;2.77;;;1.60;;
18290;SDS011;9271;48.590;8.866;2024-02-21T14:38:35;2.37;;;1.60;;
18290;SDS011;9271;48.590;8.866;2024-02-21T14:41:01;2.60;;;1.60;;
18290;SDS011;9271;48.590;8.866;2024-02-21T14:43:28;3.67;;;1.93;;
18290;SDS011;9271;48.590;8.866;2024-02-21T14:45:55;3.20;;;2.10;;
18290;SDS011;9271;48.590;8.866;2024-02-21T14:48:21;2.73;;;1.60;;
18290;SDS011;9271;48.590;8.866;2024-02-21T14:50:48;2.53;;;1.67;;
18290;SDS011;9271;48.590;8.866;2024-02-21T14:53:15;3.67;;;1.70;;
18290;SDS011;9271;48.590;8.866;2024-02-21T14:55:44;5.50;;;1.77;;
18290;SDS011;9271;48.590;8.866;2024-02-21T14:58:11;1.97;;;1.70;;
18290;SDS011;9271;48.590;8.866;2024-02-21T15:00:38;1.93;;;1.70;;
18290;SDS011;9271;48.590;8.866;2024-02-21T15:03:05;2.10;;;1.50;;